Terminal Aerodrome Forecast
Issued by NWS Wakefield, VA

Home | Current Version | Previous Version | Text Only | Print | Product List | Glossary On
Versions: 1 2 3 4 5 6 7 8 9 10 11 12 13 14
000
FTUS41 KAKQ 012346 CCA
TAFECG
TAF COR
KECG 012346Z 0200/0224 17011G18KT P6SM SKC
     FM020400 18009KT P6SM SKC
     FM020800 20005KT P6SM SCT200
     FM022000 06008KT P6SM BKN050=

USA.gov is the U.S. government's official web portal to all federal, state and local government web resources and services.